sensor_id;sensor_type;location;lat;lon;timestamp;pressure;altitude;pressure_sealevel;temperature;humidity
32033;BME280;31720;52.638;9.216;2023-02-28T00:01:21;102863.38;;;-0.33;100.00
32033;BME280;31720;52.638;9.216;2023-02-28T00:04:22;102863.38;;;-0.33;100.00
32033;BME280;31720;52.638;9.216;2023-02-28T00:07:24;102861.63;;;-0.34;100.00
32033;BME280;31720;52.638;9.216;2023-02-28T00:10:28;102853.84;;;-0.35;100.00
32033;BME280;31720;52.638;9.216;2023-02-28T00:13:30;102861.53;;;-0.37;100.00
32033;BME280;31720;52.638;9.216;2023-02-28T00:16:31;102860.41;;;-0.48;100.00
32033;BME280;31720;52.638;9.216;2023-02-28T00:19:33;102872.47;;;-0.47;100.00
32033;BME280;31720;52.638;9.216;2023-02-28T00:22:34;102869.78;;;-0.50;100.00
32033;BME280;31720;52.638;9.216;2023-02-28T00:25:37;102862.84;;;-0.53;100.00
32033;BME280;31720;52.638;9.216;2023-02-28T00:28:38;102868.00;;;-0.54;100.00
32033;BME280;31720;52.638;9.216;2023-02-28T00:31:40;102867.88;;;-0.59;100.00
32033;BME280;31720;52.638;9.216;2023-02-28T00:34:41;102880.53;;;-0.68;100.00
32033;BME280;31720;52.638;9.216;2023-02-28T00:37:43;102889.50;;;-0.85;100.00
32033;BME280;31720;52.638;9.216;2023-02-28T00:40:45;102878.06;;;-0.95;100.00
32033;BME280;31720;52.638;9.216;2023-02-28T00:43:47;102882.50;;;-0.89;100.00
32033;BME280;31720;52.638;9.216;2023-02-28T00:46:48;102885.78;;;-0.95;100.00
32033;BME280;31720;52.638;9.216;2023-02-28T00:49:49;102878.84;;;-0.97;100.00
32033;BME280;31720;52.638;9.216;2023-02-28T00:52:51;102881.56;;;-0.91;100.00
32033;BME280;31720;52.638;9.216;2023-02-28T00:55:53;102880.03;;;-0.86;100.00
32033;BME280;31720;52.638;9.216;2023-02-28T00:58:55;102878.22;;;-0.89;100.00
32033;BME280;31720;52.638;9.216;2023-02-28T01:01:56;102879.00;;;-0.91;100.00
32033;BME280;31720;52.638;9.216;2023-02-28T01:04:57;102881.44;;;-0.96;100.00
32033;BME280;31720;52.638;9.216;2023-02-28T01:07:59;102885.88;;;-0.92;100.00
32033;BME280;31720;52.638;9.216;2023-02-28T01:11:08;102886.53;;;-0.99;100.00
32033;BME280;31720;52.638;9.216;2023-02-28T01:14:12;102881.19;;;-1.05;100.00
32033;BME280;31720;52.638;9.216;2023-02-28T01:17:15;102881.91;;;-1.09;100.00
32033;BME280;31720;52.638;9.216;2023-02-28T01:20:16;102886.28;;;-1.08;100.00
32033;BME280;31720;52.638;9.216;2023-02-28T01:23:18;102885.56;;;-1.03;100.00
32033;BME280;31720;52.638;9.216;2023-02-28T01:26:22;102888.97;;;-1.04;100.00
32033;BME280;31720;52.638;9.216;2023-02-28T01:29:23;102883.84;;;-1.02;100.00
32033;BME280;31720;52.638;9.216;2023-02-28T01:32:25;102884.59;;;-1.06;100.00
32033;BME280;31720;52.638;9.216;2023-02-28T01:35:26;102876.00;;;-1.07;100.00
32033;BME280;31720;52.638;9.216;2023-02-28T01:38:27;102874.16;;;-1.11;100.00
32033;BME280;31720;52.638;9.216;2023-02-28T01:41:32;102880.97;;;-1.13;100.00
32033;BME280;31720;52.638;9.216;2023-02-28T01:45:04;102876.59;;;-1.15;100.00
32033;BME280;31720;52.638;9.216;2023-02-28T01:48:08;102873.09;;;-1.17;100.00
32033;BME280;31720;52.638;9.216;2023-02-28T01:51:13;102882.56;;;-1.18;100.00
32033;BME280;31720;52.638;9.216;2023-02-28T01:54:17;102876.41;;;-1.21;100.00
32033;BME280;31720;52.638;9.216;2023-02-28T01:57:23;102877.28;;;-1.21;100.00
32033;BME280;31720;52.638;9.216;2023-02-28T02:00:26;102874.72;;;-1.21;100.00
32033;BME280;31720;52.638;9.216;2023-02-28T02:03:29;102873.97;;;-1.17;100.00
32033;BME280;31720;52.638;9.216;2023-02-28T02:06:36;102875.59;;;-1.20;100.00
32033;BME280;31720;52.638;9.216;2023-02-28T02:09:38;102877.31;;;-1.19;100.00
32033;BME280;31720;52.638;9.216;2023-02-28T02:12:53;102870.44;;;-1.20;100.00
32033;BME280;31720;52.638;9.216;2023-02-28T02:16:09;102872.00;;;-1.25;100.00
32033;BME280;31720;52.638;9.216;2023-02-28T02:19:33;102871.88;;;-1.30;100.00
32033;BME280;31720;52.638;9.216;2023-02-28T02:26:39;102862.19;;;-1.37;100.00
32033;BME280;31720;52.638;9.216;2023-02-28T02:30:27;102857.72;;;-1.43;100.00
32033;BME280;31720;52.638;9.216;2023-02-28T02:34:00;102851.38;;;-1.54;100.00
32033;BME280;31720;52.638;9.216;2023-02-28T02:37:07;102850.41;;;-1.58;100.00
32033;BME280;31720;52.638;9.216;2023-02-28T02:40:14;102853.03;;;-1.56;100.00
32033;BME280;31720;52.638;9.216;2023-02-28T02:43:19;102856.44;;;-1.57;100.00
32033;BME280;31720;52.638;9.216;2023-02-28T02:46:27;102859.00;;;-1.57;100.00
32033;BME280;31720;52.638;9.216;2023-02-28T02:49:32;102860.44;;;-1.67;100.00
32033;BME280;31720;52.638;9.216;2023-02-28T02:52:38;102865.63;;;-1.65;100.00
32033;BME280;31720;52.638;9.216;2023-02-28T02:55:43;102860.50;;;-1.64;100.00
32033;BME280;31720;52.638;9.216;2023-02-28T02:58:47;102861.44;;;-1.62;100.00
32033;BME280;31720;52.638;9.216;2023-02-28T03:01:53;102865.03;;;-1.57;100.00
32033;BME280;31720;52.638;9.216;2023-02-28T03:05:00;102874.50;;;-1.56;100.00
32033;BME280;31720;52.638;9.216;2023-02-28T03:08:03;102870.94;;;-1.61;100.00
32033;BME280;31720;52.638;9.216;2023-02-28T03:11:06;102876.88;;;-1.63;100.00
32033;BME280;31720;52.638;9.216;2023-02-28T03:14:25;102867.31;;;-1.67;100.00
32033;BME280;31720;52.638;9.216;2023-02-28T03:17:44;102869.00;;;-1.68;100.00
32033;BME280;31720;52.638;9.216;2023-02-28T03:20:59;102863.50;;;-1.79;100.00
32033;BME280;31720;52.638;9.216;2023-02-28T03:24:08;102862.22;;;-1.91;100.00
32033;BME280;31720;52.638;9.216;2023-02-28T03:27:15;102862.44;;;-1.85;100.00
32033;BME280;31720;52.638;9.216;2023-02-28T03:30:23;102861.63;;;-1.83;100.00
32033;BME280;31720;52.638;9.216;2023-02-28T03:33:29;102865.16;;;-1.81;100.00
32033;BME280;31720;52.638;9.216;2023-02-28T03:36:37;102864.19;;;-1.84;100.00
32033;BME280;31720;52.638;9.216;2023-02-28T03:39:47;102870.75;;;-1.94;100.00
32033;BME280;31720;52.638;9.216;2023-02-28T03:42:55;102868.03;;;-1.98;100.00
32033;BME280;31720;52.638;9.216;2023-02-28T03:45:59;102865.53;;;-1.95;100.00
32033;BME280;31720;52.638;9.216;2023-02-28T03:49:07;102865.47;;;-1.97;100.00
32033;BME280;31720;52.638;9.216;2023-02-28T03:52:11;102865.59;;;-1.94;100.00
32033;BME280;31720;52.638;9.216;2023-02-28T03:55:15;102859.59;;;-1.93;100.00
32033;BME280;31720;52.638;9.216;2023-02-28T03:58:22;102861.19;;;-1.96;100.00
32033;BME280;31720;52.638;9.216;2023-02-28T04:01:30;102873.09;;;-2.00;100.00
32033;BME280;31720;52.638;9.216;2023-02-28T04:04:33;102857.59;;;-2.01;100.00
32033;BME280;31720;52.638;9.216;2023-02-28T04:07:36;102860.19;;;-2.01;100.00
32033;BME280;31720;52.638;9.216;2023-02-28T04:10:38;102864.44;;;-2.03;100.00
32033;BME280;31720;52.638;9.216;2023-02-28T04:13:40;102868.59;;;-2.07;100.00
32033;BME280;31720;52.638;9.216;2023-02-28T04:16:42;102870.06;;;-2.14;100.00
32033;BME280;31720;52.638;9.216;2023-02-28T04:19:43;102873.44;;;-2.16;100.00
32033;BME280;31720;52.638;9.216;2023-02-28T04:22:46;102883.75;;;-2.16;100.00
32033;BME280;31720;52.638;9.216;2023-02-28T04:25:47;102879.50;;;-2.14;100.00
32033;BME280;31720;52.638;9.216;2023-02-28T04:28:51;102874.34;;;-2.14;100.00
32033;BME280;31720;52.638;9.216;2023-02-28T04:31:52;102870.91;;;-2.15;100.00
32033;BME280;31720;52.638;9.216;2023-02-28T04:34:54;102874.28;;;-2.17;100.00
32033;BME280;31720;52.638;9.216;2023-02-28T04:37:56;102868.66;;;-2.31;100.00
32033;BME280;31720;52.638;9.216;2023-02-28T04:40:58;102870.53;;;-2.27;100.00
32033;BME280;31720;52.638;9.216;2023-02-28T04:44:00;102862.41;;;-2.38;100.00
32033;BME280;31720;52.638;9.216;2023-02-28T04:47:01;102876.16;;;-2.37;100.00
32033;BME280;31720;52.638;9.216;2023-02-28T04:50:03;102880.41;;;-2.39;100.00
32033;BME280;31720;52.638;9.216;2023-02-28T04:53:06;102876.78;;;-2.44;100.00
32033;BME280;31720;52.638;9.216;2023-02-28T04:56:08;102881.25;;;-2.39;100.00
32033;BME280;31720;52.638;9.216;2023-02-28T04:59:11;102884.59;;;-2.41;100.00
32033;BME280;31720;52.638;9.216;2023-02-28T05:02:12;102892.22;;;-2.44;100.00
32033;BME280;31720;52.638;9.216;2023-02-28T05:05:14;102895.69;;;-2.44;100.00
32033;BME280;31720;52.638;9.216;2023-02-28T05:08:19;102889.66;;;-2.44;100.00
32033;BME280;31720;52.638;9.216;2023-02-28T05:11:23;102891.25;;;-2.48;100.00
32033;BME280;31720;52.638;9.216;2023-02-28T05:14:25;102886.97;;;-2.47;100.00
32033;BME280;31720;52.638;9.216;2023-02-28T05:17:26;102889.44;;;-2.50;100.00
32033;BME280;31720;52.638;9.216;2023-02-28T05:20:28;102893.66;;;-2.52;100.00
32033;BME280;31720;52.638;9.216;2023-02-28T05:23:31;102893.22;;;-2.65;100.00
32033;BME280;31720;52.638;9.216;2023-02-28T05:26:34;102892.47;;;-2.62;100.00
32033;BME280;31720;52.638;9.216;2023-02-28T05:29:36;102890.06;;;-2.58;100.00
32033;BME280;31720;52.638;9.216;2023-02-28T05:32:41;102895.75;;;-2.66;100.00
32033;BME280;31720;52.638;9.216;2023-02-28T05:35:43;102891.31;;;-2.70;100.00
32033;BME280;31720;52.638;9.216;2023-02-28T05:38:47;102899.84;;;-2.71;100.00
32033;BME280;31720;52.638;9.216;2023-02-28T05:41:49;102894.59;;;-2.74;100.00
32033;BME280;31720;52.638;9.216;2023-02-28T05:44:50;102899.25;;;-2.88;100.00
32033;BME280;31720;52.638;9.216;2023-02-28T05:47:53;102896.97;;;-2.81;100.00
32033;BME280;31720;52.638;9.216;2023-02-28T05:50:54;102903.13;;;-2.75;100.00
32033;BME280;31720;52.638;9.216;2023-02-28T05:54:00;102898.13;;;-2.72;100.00
32033;BME280;31720;52.638;9.216;2023-02-28T05:57:01;102898.16;;;-2.71;100.00
32033;BME280;31720;52.638;9.216;2023-02-28T06:00:04;102892.88;;;-2.74;100.00
32033;BME280;31720;52.638;9.216;2023-02-28T06:03:05;102891.31;;;-2.70;100.00
32033;BME280;31720;52.638;9.216;2023-02-28T06:06:06;102900.72;;;-2.71;100.00
32033;BME280;31720;52.638;9.216;2023-02-28T06:09:09;102906.47;;;-2.78;100.00
32033;BME280;31720;52.638;9.216;2023-02-28T06:12:10;102902.94;;;-2.82;100.00
32033;BME280;31720;52.638;9.216;2023-02-28T06:15:13;102907.28;;;-2.79;100.00
32033;BME280;31720;52.638;9.216;2023-02-28T06:18:14;102903.09;;;-2.77;100.00
32033;BME280;31720;52.638;9.216;2023-02-28T06:21:16;102903.13;;;-2.75;100.00
32033;BME280;31720;52.638;9.216;2023-02-28T06:24:18;102902.69;;;-2.88;100.00
32033;BME280;31720;52.638;9.216;2023-02-28T06:27:20;102907.94;;;-2.85;100.00
32033;BME280;31720;52.638;9.216;2023-02-28T06:30:22;102910.69;;;-2.80;100.00
32033;BME280;31720;52.638;9.216;2023-02-28T06:33:25;102914.25;;;-2.76;100.00
32033;BME280;31720;52.638;9.216;2023-02-28T06:36:26;102911.72;;;-2.75;100.00
32033;BME280;31720;52.638;9.216;2023-02-28T06:39:29;102909.19;;;-2.73;100.00
32033;BME280;31720;52.638;9.216;2023-02-28T06:42:30;102917.00;;;-2.72;100.00
32033;BME280;31720;52.638;9.216;2023-02-28T06:45:32;102918.47;;;-2.78;100.00
32033;BME280;31720;52.638;9.216;2023-02-28T06:48:34;102929.53;;;-2.81;100.00
32033;BME280;31720;52.638;9.216;2023-02-28T06:51:37;102931.28;;;-2.80;100.00
32033;BME280;31720;52.638;9.216;2023-02-28T06:54:40;102934.06;;;-2.74;100.00
32033;BME280;31720;52.638;9.216;2023-02-28T06:57:42;102938.47;;;-2.71;100.00
32033;BME280;31720;52.638;9.216;2023-02-28T07:00:44;102937.75;;;-2.67;100.00
32033;BME280;31720;52.638;9.216;2023-02-28T07:03:46;102942.25;;;-2.62;100.00
32033;BME280;31720;52.638;9.216;2023-02-28T07:06:52;102940.00;;;-2.52;100.00
32033;BME280;31720;52.638;9.216;2023-02-28T07:09:57;102945.34;;;-2.46;100.00
32033;BME280;31720;52.638;9.216;2023-02-28T07:12:59;102945.50;;;-2.42;100.00
32033;BME280;31720;52.638;9.216;2023-02-28T07:16:02;102952.53;;;-2.38;100.00
32033;BME280;31720;52.638;9.216;2023-02-28T07:19:04;102950.94;;;-2.34;100.00
32033;BME280;31720;52.638;9.216;2023-02-28T07:22:05;102957.13;;;-2.29;100.00
32033;BME280;31720;52.638;9.216;2023-02-28T07:25:09;102958.22;;;-2.22;100.00
32033;BME280;31720;52.638;9.216;2023-02-28T07:28:10;102956.72;;;-2.16;100.00
32033;BME280;31720;52.638;9.216;2023-02-28T07:31:12;102962.88;;;-2.12;100.00
32033;BME280;31720;52.638;9.216;2023-02-28T07:34:14;102951.78;;;-2.10;100.00
32033;BME280;31720;52.638;9.216;2023-02-28T07:37:15;102953.59;;;-2.07;100.00
32033;BME280;31720;52.638;9.216;2023-02-28T07:40:18;102951.13;;;-2.04;100.00
32033;BME280;31720;52.638;9.216;2023-02-28T07:43:19;102951.28;;;-1.99;100.00
32033;BME280;31720;52.638;9.216;2023-02-28T07:46:20;102959.22;;;-1.93;100.00
32033;BME280;31720;52.638;9.216;2023-02-28T07:49:22;102961.22;;;-1.85;100.00
32033;BME280;31720;52.638;9.216;2023-02-28T07:52:23;102955.41;;;-1.79;100.00
32033;BME280;31720;52.638;9.216;2023-02-28T07:55:26;102956.53;;;-1.71;100.00
32033;BME280;31720;52.638;9.216;2023-02-28T07:58:29;102960.13;;;-1.66;100.00
32033;BME280;31720;52.638;9.216;2023-02-28T08:01:31;102955.13;;;-1.61;100.00
32033;BME280;31720;52.638;9.216;2023-02-28T08:04:32;102968.16;;;-1.57;100.00
32033;BME280;31720;52.638;9.216;2023-02-28T08:07:33;102958.91;;;-1.50;100.00
32033;BME280;31720;52.638;9.216;2023-02-28T08:10:36;102961.81;;;-1.41;100.00
32033;BME280;31720;52.638;9.216;2023-02-28T08:13:38;102962.88;;;-1.34;100.00
32033;BME280;31720;52.638;9.216;2023-02-28T08:16:39;102969.88;;;-1.30;100.00
32033;BME280;31720;52.638;9.216;2023-02-28T08:19:40;102967.47;;;-1.24;100.00
32033;BME280;31720;52.638;9.216;2023-02-28T08:22:42;102967.69;;;-1.18;100.00
32033;BME280;31720;52.638;9.216;2023-02-28T08:25:52;102964.47;;;-1.09;100.00
32033;BME280;31720;52.638;9.216;2023-02-28T08:28:53;102953.53;;;-1.02;100.00
32033;BME280;31720;52.638;9.216;2023-02-28T08:31:54;102959.84;;;-0.92;100.00
32033;BME280;31720;52.638;9.216;2023-02-28T08:34:56;102953.19;;;-0.84;100.00
32033;BME280;31720;52.638;9.216;2023-02-28T08:37:57;102959.41;;;-0.78;100.00
32033;BME280;31720;52.638;9.216;2023-02-28T08:41:02;102961.31;;;-0.72;100.00
32033;BME280;31720;52.638;9.216;2023-02-28T08:44:05;102964.94;;;-0.65;100.00
32033;BME280;31720;52.638;9.216;2023-02-28T08:47:07;102964.28;;;-0.58;100.00
32033;BME280;31720;52.638;9.216;2023-02-28T08:50:09;102971.34;;;-0.51;100.00
32033;BME280;31720;52.638;9.216;2023-02-28T08:53:11;102971.56;;;-0.43;100.00
32033;BME280;31720;52.638;9.216;2023-02-28T08:56:15;102968.41;;;-0.33;100.00
32033;BME280;31720;52.638;9.216;2023-02-28T08:59:17;102972.84;;;-0.28;100.00
32033;BME280;31720;52.638;9.216;2023-02-28T09:02:18;102977.25;;;-0.25;100.00
32033;BME280;31720;52.638;9.216;2023-02-28T09:05:20;102982.56;;;-0.19;100.00
32033;BME280;31720;52.638;9.216;2023-02-28T09:08:22;102989.69;;;-0.10;100.00
32033;BME280;31720;52.638;9.216;2023-02-28T09:11:25;102983.00;;;-0.04;100.00
32033;BME280;31720;52.638;9.216;2023-02-28T09:14:26;102981.41;;;0.02;100.00
32033;BME280;31720;52.638;9.216;2023-02-28T09:17:28;102984.88;;;0.04;100.00
32033;BME280;31720;52.638;9.216;2023-02-28T09:20:29;102980.66;;;0.06;100.00
32033;BME280;31720;52.638;9.216;2023-02-28T09:23:31;102986.00;;;0.13;100.00
32033;BME280;31720;52.638;9.216;2023-02-28T09:26:33;102986.19;;;0.19;100.00
32033;BME280;31720;52.638;9.216;2023-02-28T09:29:35;102977.59;;;0.22;100.00
32033;BME280;31720;52.638;9.216;2023-02-28T09:32:36;102985.56;;;0.30;100.00
32033;BME280;31720;52.638;9.216;2023-02-28T09:35:37;102982.34;;;0.38;100.00
32033;BME280;31720;52.638;9.216;2023-02-28T09:38:39;102978.22;;;0.46;100.00
32033;BME280;31720;52.638;9.216;2023-02-28T09:41:44;102977.75;;;0.63;100.00
32033;BME280;31720;52.638;9.216;2023-02-28T09:44:49;102980.53;;;0.72;100.00
32033;BME280;31720;52.638;9.216;2023-02-28T09:47:54;102975.78;;;0.90;100.00
32033;BME280;31720;52.638;9.216;2023-02-28T09:51:04;102973.50;;;1.04;100.00
32033;BME280;31720;52.638;9.216;2023-02-28T09:54:13;102977.25;;;1.17;98.61
32033;BME280;31720;52.638;9.216;2023-02-28T09:57:31;102973.19;;;1.28;97.08
32033;BME280;31720;52.638;9.216;2023-02-28T10:00:36;102981.03;;;1.33;95.72
32033;BME280;31720;52.638;9.216;2023-02-28T10:03:43;102973.41;;;1.40;94.64
32033;BME280;31720;52.638;9.216;2023-02-28T10:06:49;102973.69;;;1.54;92.68
32033;BME280;31720;52.638;9.216;2023-02-28T10:09:54;102970.38;;;1.60;90.27
32033;BME280;31720;52.638;9.216;2023-02-28T10:13:01;102968.66;;;1.62;89.82
32033;BME280;31720;52.638;9.216;2023-02-28T10:16:06;102957.69;;;1.75;86.06
32033;BME280;31720;52.638;9.216;2023-02-28T10:19:14;102971.69;;;1.85;85.60
32033;BME280;31720;52.638;9.216;2023-02-28T10:22:19;102969.66;;;2.15;79.92
32033;BME280;31720;52.638;9.216;2023-02-28T10:25:24;102963.72;;;2.22;79.56
32033;BME280;31720;52.638;9.216;2023-02-28T10:28:28;102972.41;;;2.26;78.05
32033;BME280;31720;52.638;9.216;2023-02-28T10:31:30;102970.09;;;2.41;74.49
32033;BME280;31720;52.638;9.216;2023-02-28T10:34:32;102965.84;;;2.46;73.67
32033;BME280;31720;52.638;9.216;2023-02-28T10:37:33;102970.38;;;2.60;73.53
32033;BME280;31720;52.638;9.216;2023-02-28T10:40:38;102983.38;;;2.61;72.67
32033;BME280;31720;52.638;9.216;2023-02-28T10:43:42;102978.19;;;2.63;70.70
32033;BME280;31720;52.638;9.216;2023-02-28T10:46:45;102981.75;;;2.68;71.01
32033;BME280;31720;52.638;9.216;2023-02-28T10:49:47;102977.72;;;2.88;68.79
32033;BME280;31720;52.638;9.216;2023-02-28T10:52:48;102974.72;;;3.21;69.96
32033;BME280;31720;52.638;9.216;2023-02-28T10:55:56;102974.75;;;3.24;69.55
32033;BME280;31720;52.638;9.216;2023-02-28T10:59:00;102976.56;;;3.28;68.08
32033;BME280;31720;52.638;9.216;2023-02-28T11:02:30;102976.50;;;3.27;67.33
32033;BME280;31720;52.638;9.216;2023-02-28T11:05:35;102974.88;;;3.34;68.48
32033;BME280;31720;52.638;9.216;2023-02-28T11:08:45;102973.19;;;3.37;67.09
32033;BME280;31720;52.638;9.216;2023-02-28T11:11:46;102971.47;;;3.39;65.83
32033;BME280;31720;52.638;9.216;2023-02-28T11:14:52;102962.97;;;3.54;64.88
32033;BME280;31720;52.638;9.216;2023-02-28T11:17:55;102963.16;;;3.69;67.09
32033;BME280;31720;52.638;9.216;2023-02-28T11:20:59;102953.66;;;3.71;64.02
32033;BME280;31720;52.638;9.216;2023-02-28T11:24:04;102955.56;;;3.86;60.39
32033;BME280;31720;52.638;9.216;2023-02-28T11:27:24;102953.00;;;3.91;61.41
32033;BME280;31720;52.638;9.216;2023-02-28T11:30:33;102946.97;;;3.96;59.86
32033;BME280;31720;52.638;9.216;2023-02-28T11:33:40;102943.56;;;4.02;60.51
32033;BME280;31720;52.638;9.216;2023-02-28T11:36:41;102936.78;;;4.19;62.87
32033;BME280;31720;52.638;9.216;2023-02-28T11:39:45;102934.19;;;4.22;63.57
32033;BME280;31720;52.638;9.216;2023-02-28T11:42:56;102925.56;;;4.31;63.52
32033;BME280;31720;52.638;9.216;2023-02-28T11:46:16;102921.22;;;4.28;59.06
32033;BME280;31720;52.638;9.216;2023-02-28T11:49:31;102927.50;;;4.55;60.69
32033;BME280;31720;52.638;9.216;2023-02-28T11:52:39;102921.53;;;4.74;63.68
32033;BME280;31720;52.638;9.216;2023-02-28T11:55:49;102922.50;;;4.95;63.90
32033;BME280;31720;52.638;9.216;2023-02-28T11:59:03;102926.03;;;5.01;61.66
32033;BME280;31720;52.638;9.216;2023-02-28T12:02:22;102923.53;;;5.29;60.51
32033;BME280;31720;52.638;9.216;2023-02-28T12:05:29;102915.75;;;5.37;60.36
32033;BME280;31720;52.638;9.216;2023-02-28T12:08:47;102908.81;;;5.54;58.16
32033;BME280;31720;52.638;9.216;2023-02-28T12:11:52;102899.31;;;5.64;59.07
32033;BME280;31720;52.638;9.216;2023-02-28T12:15:12;102908.91;;;5.77;58.34
32033;BME280;31720;52.638;9.216;2023-02-28T12:18:29;102897.63;;;6.07;58.00
32033;BME280;31720;52.638;9.216;2023-02-28T12:21:48;102898.50;;;6.14;57.35
32033;BME280;31720;52.638;9.216;2023-02-28T12:25:16;102891.53;;;6.25;55.60
32033;BME280;31720;52.638;9.216;2023-02-28T12:28:24;102878.47;;;6.37;57.86
32033;BME280;31720;52.638;9.216;2023-02-28T12:31:29;102882.81;;;6.35;57.59
32033;BME280;31720;52.638;9.216;2023-02-28T12:34:35;102880.19;;;6.43;58.69
32033;BME280;31720;52.638;9.216;2023-02-28T12:37:41;102880.19;;;6.44;56.99
32033;BME280;31720;52.638;9.216;2023-02-28T12:40:49;102870.59;;;6.48;57.63
32033;BME280;31720;52.638;9.216;2023-02-28T12:43:55;102865.38;;;6.48;57.43
32033;BME280;31720;52.638;9.216;2023-02-28T12:47:00;102863.59;;;6.68;57.76
32033;BME280;31720;52.638;9.216;2023-02-28T12:50:08;102860.91;;;6.85;57.01
32033;BME280;31720;52.638;9.216;2023-02-28T12:53:15;102859.25;;;6.66;54.74
32033;BME280;31720;52.638;9.216;2023-02-28T12:56:26;102858.34;;;6.71;57.14
32033;BME280;31720;52.638;9.216;2023-02-28T12:59:35;102846.13;;;6.78;54.05
32033;BME280;31720;52.638;9.216;2023-02-28T13:02:50;102844.41;;;6.71;53.39
32033;BME280;31720;52.638;9.216;2023-02-28T13:06:20;102839.94;;;6.97;54.61
32033;BME280;31720;52.638;9.216;2023-02-28T13:09:24;102839.97;;;6.93;52.18
32033;BME280;31720;52.638;9.216;2023-02-28T13:12:26;102842.53;;;7.03;53.22
32033;BME280;31720;52.638;9.216;2023-02-28T13:15:28;102841.44;;;7.40;52.89
32033;BME280;31720;52.638;9.216;2023-02-28T13:18:35;102833.63;;;7.38;52.92
32033;BME280;31720;52.638;9.216;2023-02-28T13:21:44;102829.84;;;7.79;53.27
32033;BME280;31720;52.638;9.216;2023-02-28T13:24:48;102832.63;;;7.59;50.99
32033;BME280;31720;52.638;9.216;2023-02-28T13:27:52;102824.81;;;7.51;49.99
32033;BME280;31720;52.638;9.216;2023-02-28T13:31:04;102828.44;;;7.32;50.14
32033;BME280;31720;52.638;9.216;2023-02-28T13:34:12;102813.53;;;7.43;51.64
32033;BME280;31720;52.638;9.216;2023-02-28T13:37:35;102815.16;;;7.61;51.84
32033;BME280;31720;52.638;9.216;2023-02-28T13:40:38;102811.50;;;7.82;51.26
32033;BME280;31720;52.638;9.216;2023-02-28T13:44:00;102800.97;;;7.88;50.54
32033;BME280;31720;52.638;9.216;2023-02-28T13:47:32;102807.00;;;7.95;49.80
32033;BME280;31720;52.638;9.216;2023-02-28T13:50:35;102791.41;;;7.84;49.74
32033;BME280;31720;52.638;9.216;2023-02-28T13:53:59;102793.22;;;7.74;51.03
32033;BME280;31720;52.638;9.216;2023-02-28T13:57:13;102789.41;;;8.10;48.14
32033;BME280;31720;52.638;9.216;2023-02-28T14:00:30;102782.56;;;7.97;49.93
32033;BME280;31720;52.638;9.216;2023-02-28T14:03:53;102786.00;;;7.99;49.58
32033;BME280;31720;52.638;9.216;2023-02-28T14:06:59;102782.31;;;8.20;49.62
32033;BME280;31720;52.638;9.216;2023-02-28T14:10:04;102784.94;;;8.20;49.28
32033;BME280;31720;52.638;9.216;2023-02-28T14:16:38;102784.69;;;8.46;48.89
32033;BME280;31720;52.638;9.216;2023-02-28T14:19:43;102788.25;;;8.36;49.87
32033;BME280;31720;52.638;9.216;2023-02-28T14:22:54;102786.84;;;8.06;49.36
32033;BME280;31720;52.638;9.216;2023-02-28T14:26:03;102782.63;;;7.91;49.00
32033;BME280;31720;52.638;9.216;2023-02-28T14:29:22;102780.09;;;7.79;49.94
32033;BME280;31720;52.638;9.216;2023-02-28T14:32:32;102777.50;;;7.76;50.28
32033;BME280;31720;52.638;9.216;2023-02-28T14:35:53;102789.06;;;7.52;51.38
32033;BME280;31720;52.638;9.216;2023-02-28T14:39:03;102786.41;;;7.53;51.13
32033;BME280;31720;52.638;9.216;2023-02-28T14:42:27;102787.44;;;7.34;50.81
32033;BME280;31720;52.638;9.216;2023-02-28T14:45:29;102786.47;;;7.44;51.39
32033;BME280;31720;52.638;9.216;2023-02-28T14:48:32;102779.56;;;7.38;52.96
32033;BME280;31720;52.638;9.216;2023-02-28T14:51:35;102780.50;;;7.28;52.37
32033;BME280;31720;52.638;9.216;2023-02-28T14:54:38;102788.47;;;7.11;51.57
32033;BME280;31720;52.638;9.216;2023-02-28T14:57:43;102780.63;;;7.13;52.93
32033;BME280;31720;52.638;9.216;2023-02-28T15:00:52;102786.81;;;6.97;53.80
32033;BME280;31720;52.638;9.216;2023-02-28T15:03:59;102778.19;;;6.82;51.75
32033;BME280;31720;52.638;9.216;2023-02-28T15:07:07;102779.06;;;6.81;53.43
32033;BME280;31720;52.638;9.216;2023-02-28T15:10:12;102785.16;;;6.82;53.00
32033;BME280;31720;52.638;9.216;2023-02-28T15:13:16;102785.19;;;6.73;54.57
32033;BME280;31720;52.638;9.216;2023-02-28T15:16:21;102783.41;;;6.76;54.00
32033;BME280;31720;52.638;9.216;2023-02-28T15:19:25;102782.66;;;6.59;54.50
32033;BME280;31720;52.638;9.216;2023-02-28T15:22:30;102787.84;;;6.65;55.12
32033;BME280;31720;52.638;9.216;2023-02-28T15:25:35;102781.75;;;6.54;57.25
32033;BME280;31720;52.638;9.216;2023-02-28T15:28:38;102780.16;;;6.27;54.86
32033;BME280;31720;52.638;9.216;2023-02-28T15:31:43;102787.06;;;6.34;56.85
32033;BME280;31720;52.638;9.216;2023-02-28T15:34:45;102779.28;;;6.17;56.76
32033;BME280;31720;52.638;9.216;2023-02-28T15:37:50;102787.97;;;6.19;57.09
32033;BME280;31720;52.638;9.216;2023-02-28T15:40:55;102788.84;;;6.27;55.54
32033;BME280;31720;52.638;9.216;2023-02-28T15:44:17;102788.00;;;6.22;56.59
32033;BME280;31720;52.638;9.216;2023-02-28T15:47:20;102794.94;;;6.28;56.63
32033;BME280;31720;52.638;9.216;2023-02-28T15:50:22;102794.94;;;6.19;57.11
32033;BME280;31720;52.638;9.216;2023-02-28T15:53:28;102789.72;;;6.13;55.87
32033;BME280;31720;52.638;9.216;2023-02-28T15:56:32;102781.91;;;6.08;59.05
32033;BME280;31720;52.638;9.216;2023-02-28T15:59:36;102778.41;;;6.12;57.44
32033;BME280;31720;52.638;9.216;2023-02-28T16:02:38;102782.78;;;6.07;58.01
32033;BME280;31720;52.638;9.216;2023-02-28T16:05:39;102774.97;;;6.02;57.50
32033;BME280;31720;52.638;9.216;2023-02-28T16:08:41;102780.16;;;6.08;58.41
32033;BME280;31720;52.638;9.216;2023-02-28T16:11:45;102772.34;;;6.02;57.32
32033;BME280;31720;52.638;9.216;2023-02-28T16:14:50;102781.91;;;6.03;58.33